Time;durP1;ratioP1;P1;durP2;ratioP2;P2;SDS_P1;SDS_P2;PMS_P1;PMS_P2;Temp;Humidity;BMP_temperature;BMP_pressure;BME280_temperature;BME280_humidity;BME280_pressure;Samples;Min_cycle;Max_cycle;Signal;HPM_P1;HPM_P2
2023/10/16 00:02:22;;;;;;;8.57;4.15;;;;;;;4.92;100.00;102324.53;5028373;28;20037;-72
2023/10/16 00:04:48;;;;;;;6.05;3.97;;;;;;;4.98;100.00;102332.44;5029889;28;20359;-73
2023/10/16 00:07:21;;;;;;;9.32;4.70;;;;;;;5.02;100.00;102331.44;5028895;28;20041;-72
2023/10/16 00:09:53;;;;;;;9.10;4.90;;;;;;;5.07;100.00;102329.53;5029990;28;20077;-72
2023/10/16 00:12:19;;;;;;;;;;;;;;;5.11;100.00;102332.09;5029985;28;20064;-73
2023/10/16 00:14:48;;;;;;;6.18;4.00;;;;;;;5.15;100.00;102329.34;5029035;28;20369;-72
2023/10/16 00:17:15;;;;;;;8.68;4.63;;;;;;;5.15;100.00;102324.81;5028365;28;20120;-72
2023/10/16 00:19:44;;;;;;;8.82;4.10;;;;;;;5.21;100.00;102331.84;5037212;28;20021;-72
2023/10/16 00:22:18;;;;;;;8.85;4.97;;;;;;;5.23;100.00;102333.59;5044768;28;20041;-72
2023/10/16 00:24:47;;;;;;;7.93;4.45;;;;;;;5.26;100.00;102324.53;5029136;28;20141;-73
2023/10/16 00:27:16;;;;;;;11.23;4.97;;;;;;;5.32;100.00;102329.78;5027920;28;20040;-73
2023/10/16 00:29:43;;;;;;;7.82;4.50;;;;;;;5.34;100.00;102325.22;5041570;28;20497;-72
2023/10/16 00:32:09;;;;;;;5.55;3.67;;;;;;;5.35;100.00;102330.56;5028064;28;20112;-73
2023/10/16 00:34:35;;;;;;;7.85;4.00;;;;;;;5.34;100.00;102328.78;5011843;28;20055;-73
2023/10/16 00:37:04;;;;;;;6.75;4.50;;;;;;;5.36;100.00;102318.88;5043900;28;20021;-72
2023/10/16 00:39:35;;;;;;;5.20;4.30;;;;;;;5.36;100.00;102323.34;5028217;28;20415;-72
2023/10/16 00:42:01;;;;;;;6.40;4.45;;;;;;;5.36;100.00;102323.34;5029202;28;20045;-73
2023/10/16 00:44:33;;;;;;;8.00;4.07;;;;;;;5.34;100.00;102326.09;5038402;28;20072;-73
2023/10/16 00:47:09;;;;;;;7.43;4.78;;;;;;;5.35;100.00;102327.84;5029648;28;20112;-73
2023/10/16 00:49:35;;;;;;;7.57;4.53;;;;;;;5.31;100.00;102326.16;5029226;28;20544;-72
2023/10/16 00:52:03;;;;;;;8.05;4.68;;;;;;;5.30;100.00;102321.72;5044722;28;20455;-72
2023/10/16 00:54:38;;;;;;;8.77;4.47;;;;;;;5.32;100.00;102330.66;5048284;28;20534;-72
2023/10/16 00:57:07;;;;;;;9.02;4.22;;;;;;;5.32;100.00;102332.47;5040514;28;20049;-72
2023/10/16 00:59:35;;;;;;;6.65;3.80;;;;;;;5.29;100.00;102324.44;5035573;28;20484;-73
2023/10/16 01:02:15;;;;;;;9.02;3.70;;;;;;;5.30;100.00;102328.91;5048783;28;20406;-73
2023/10/16 01:04:41;;;;;;;6.13;3.65;;;;;;;5.31;100.00;102320.78;5042909;28;20108;-73
2023/10/16 01:07:08;;;;;;;9.43;3.75;;;;;;;5.30;100.00;102319.00;5029330;28;20032;-73
2023/10/16 01:09:39;;;;;;;7.63;4.07;;;;;;;5.29;100.00;102322.63;5029462;28;20043;-72
2023/10/16 01:12:06;;;;;;;9.43;4.80;;;;;;;5.28;100.00;102322.69;5027603;28;20053;-73
2023/10/16 01:14:33;;;;;;;7.28;4.45;;;;;;;5.25;100.00;102317.38;5035643;28;20043;-72
2023/10/16 01:16:59;;;;;;;6.60;4.45;;;;;;;5.22;100.00;102310.25;5027444;28;20032;-72
2023/10/16 01:19:24;;;;;;;12.43;4.82;;;;;;;5.22;100.00;102306.66;5027957;28;20473;-72
2023/10/16 01:21:50;;;;;;;6.32;4.47;;;;;;;5.22;100.00;102301.25;5028524;28;20037;-72
2023/10/16 01:24:16;;;;;;;9.23;5.18;;;;;;;5.21;100.00;102304.88;5028295;28;20076;-72
2023/10/16 01:26:42;;;;;;;6.50;4.70;;;;;;;5.20;100.00;102305.81;5027831;28;20473;-72
2023/10/16 01:29:09;;;;;;;5.55;4.28;;;;;;;5.16;100.00;102305.00;5028003;28;20041;-72
2023/10/16 01:31:36;;;;;;;12.25;5.32;;;;;;;5.13;100.00;102294.31;5028839;28;20050;-73
2023/10/16 01:34:11;;;;;;;9.73;5.20;;;;;;;5.08;100.00;102298.91;5026710;28;20589;-72
2023/10/16 01:36:46;;;;;;;9.52;4.88;;;;;;;5.06;100.00;102303.47;5028255;28;20397;-72
2023/10/16 01:39:48;;;;;;;14.15;6.20;;;;;;;5.03;100.00;102301.72;5028209;28;20056;-73
2023/10/16 01:42:01;;;;;;;12.20;5.55;;;;;;;5.00;100.00;102301.84;5027526;28;20052;-73
2023/10/16 01:44:28;;;;;;;9.98;5.13;;;;;;;4.98;100.00;102295.56;5033318;28;20351;-73
2023/10/16 01:46:54;;;;;;;11.30;4.30;;;;;;;4.95;100.00;102300.19;5047969;28;20806;-72
2023/10/16 01:49:24;;;;;;;6.75;5.07;;;;;;;4.92;100.00;102301.13;5046335;28;20036;-73
2023/10/16 01:51:51;;;;;;;10.15;5.45;;;;;;;4.91;100.00;102303.88;5027565;28;20064;-73
2023/10/16 01:54:17;;;;;;;7.60;4.57;;;;;;;4.88;100.00;102290.47;5026780;28;20047;-72
2023/10/16 01:56:42;;;;;;;6.30;4.60;;;;;;;4.90;100.00;102302.13;5026256;28;20073;-72
2023/10/16 01:59:08;;;;;;;7.68;5.57;;;;;;;4.87;100.00;102289.59;5041635;28;20073;-72
2023/10/16 02:01:34;;;;;;;7.60;5.25;;;;;;;4.85;100.00;102303.13;5046637;28;20044;-72
2023/10/16 02:04:03;;;;;;;6.20;4.10;;;;;;;4.82;100.00;102284.31;5044139;28;20039;-72
2023/10/16 02:06:28;;;;;;;8.60;4.63;;;;;;;4.81;100.00;102285.25;5027590;28;20041;-72
2023/10/16 02:08:54;;;;;;;7.20;4.63;;;;;;;4.81;100.00;102295.13;5029592;28;20026;-73
2023/10/16 02:11:19;;;;;;;9.18;5.03;;;;;;;4.79;100.00;102288.88;5046322;28;20040;-72
2023/10/16 02:13:45;;;;;;;7.70;4.63;;;;;;;4.75;100.00;102290.75;5043737;28;20473;-73
2023/10/16 02:16:12;;;;;;;10.73;5.55;;;;;;;4.73;100.00;102281.84;5026228;28;20061;-72
2023/10/16 02:18:42;;;;;;;8.27;5.65;;;;;;;4.70;100.00;102281.03;5026049;28;20865;-72
2023/10/16 02:21:11;;;;;;;12.63;6.07;;;;;;;4.67;100.00;102278.44;5025176;28;20051;-72
2023/10/16 02:23:44;;;;;;;7.28;5.80;;;;;;;4.67;100.00;102278.44;5026200;28;20569;-72
2023/10/16 02:26:10;;;;;;;8.75;5.90;;;;;;;4.64;100.00;102273.09;5026793;28;20131;-72
2023/10/16 02:28:36;;;;;;;18.27;6.30;;;;;;;4.62;100.00;102273.16;5027312;28;20120;-72
2023/10/16 02:31:15;;;;;;;9.73;5.38;;;;;;;4.61;100.00;102280.31;5041931;28;20076;-72
2023/10/16 02:33:54;;;;;;;9.55;6.32;;;;;;;4.62;100.00;102267.75;5026953;28;20041;-73
2023/10/16 02:36:21;;;;;;;16.20;7.00;;;;;;;4.63;100.00;102266.81;5027444;28;20482;-72
2023/10/16 02:38:50;;;;;;;13.70;6.20;;;;;;;4.63;100.00;102266.81;5027239;28;20120;-72
2023/10/16 02:41:19;;;;;;;9.60;5.78;;;;;;;4.62;100.00;102259.69;5009269;28;20071;-72
2023/10/16 02:43:48;;;;;;;9.10;6.03;;;;;;;4.65;100.00;102264.97;5025297;28;20061;-73
2023/10/16 02:46:18;;;;;;;10.88;6.20;;;;;;;4.68;100.00;102269.41;5025515;28;20041;-72
2023/10/16 02:48:43;;;;;;;8.95;5.85;;;;;;;4.70;100.00;102265.72;5026762;28;20507;-72
2023/10/16 02:51:12;;;;;;;9.43;6.63;;;;;;;4.75;100.00;102266.50;5032878;28;20033;-73
2023/10/16 02:53:41;;;;;;;11.35;6.63;;;;;;;4.77;100.00;102264.66;5026888;28;20195;-73
2023/10/16 02:58:46;;;;;;;8.17;5.90;;;;;;;4.84;100.00;102268.09;5027639;28;20543;-73
2023/10/16 03:01:18;;;;;;;8.73;5.68;;;;;;;4.88;100.00;102263.50;5026710;28;20771;-73
2023/10/16 03:03:45;;;;;;;8.77;5.35;;;;;;;4.88;100.00;102259.00;5026612;28;20401;-73
2023/10/16 03:06:11;;;;;;;7.60;5.57;;;;;;;4.90;100.00;102267.94;5042428;28;20119;-72
2023/10/16 03:08:37;;;;;;;8.95;5.97;;;;;;;4.92;100.00;102267.91;5025517;28;20037;-72
2023/10/16 03:11:06;;;;;;;10.45;5.78;;;;;;;4.92;100.00;102266.06;5025859;28;20034;-72
2023/10/16 03:13:36;;;;;;;9.57;6.18;;;;;;;4.91;100.00;102266.13;5026612;28;20034;-72
2023/10/16 03:16:07;;;;;;;9.60;6.35;;;;;;;4.89;100.00;102266.16;5028647;28;20433;-72
2023/10/16 03:18:34;;;;;;;9.82;6.13;;;;;;;4.88;100.00;102266.19;5045863;28;20037;-72
2023/10/16 03:21:45;;;;;;;8.38;6.55;;;;;;;4.82;100.00;102259.16;5035701;28;20072;-72
2023/10/16 03:23:52;;;;;;;6.60;5.43;;;;;;;4.80;100.00;102269.06;5045001;28;20040;-73
2023/10/16 03:26:25;;;;;;;8.30;5.30;;;;;;;4.74;100.00;102263.84;5046257;28;20381;-72
2023/10/16 03:28:54;;;;;;;7.53;5.30;;;;;;;4.71;100.00;102270.22;5029153;28;20434;-72
2023/10/16 03:31:20;;;;;;;7.10;5.45;;;;;;;4.66;100.00;102257.75;5045336;28;20060;-72
2023/10/16 03:33:46;;;;;;;7.47;5.70;;;;;;;4.61;100.00;102266.84;5046209;28;20504;-72
2023/10/16 03:36:12;;;;;;;7.53;4.82;;;;;;;4.51;100.00;102259.03;5044627;28;20040;-72
2023/10/16 03:38:37;;;;;;;7.13;5.53;;;;;;;4.49;100.00;102266.28;5046747;28;20032;-73
2023/10/16 03:41:51;;;;;;;8.38;5.53;;;;;;;4.46;100.00;102260.97;5046869;28;20044;-72
2023/10/16 03:43:58;;;;;;;9.55;5.90;;;;;;;4.41;100.00;102258.38;5030867;28;20049;-72
2023/10/16 03:46:27;;;;;;;8.93;5.55;;;;;;;4.35;100.00;102258.53;5025064;28;20034;-72
2023/10/16 03:48:54;;;;;;;8.45;5.07;;;;;;;4.33;100.00;102258.53;5026303;28;20076;-73
2023/10/16 03:51:21;;;;;;;6.45;5.18;;;;;;;4.32;100.00;102261.28;5025735;28;20591;-73
2023/10/16 03:53:46;;;;;;;5.78;4.93;;;;;;;4.30;100.00;102260.44;5025055;28;20497;-72
2023/10/16 03:56:13;;;;;;;9.50;5.65;;;;;;;4.25;100.00;102252.47;5025976;28;20036;-72
2023/10/16 03:58:43;;;;;;;8.80;5.57;;;;;;;4.23;100.00;102257.00;5043617;28;20416;-72
2023/10/16 04:01:10;;;;;;;7.32;5.43;;;;;;;4.23;100.00;102262.38;5048088;28;20039;-73
2023/10/16 04:03:50;;;;;;;9.90;5.15;;;;;;;4.20;100.00;102251.72;5050369;28;20044;-72
2023/10/16 04:06:20;;;;;;;6.63;5.13;;;;;;;4.17;100.00;102256.28;5030310;28;20042;-72
2023/10/16 04:08:49;;;;;;;9.20;5.00;;;;;;;4.14;100.00;102250.94;5028631;28;20098;-72
2023/10/16 04:11:18;;;;;;;8.15;5.78;;;;;;;4.12;100.00;102256.38;5029694;28;20025;-72
2023/10/16 04:13:47;;;;;;;8.20;6.20;;;;;;;4.08;100.00;102263.63;5046882;28;20047;-73
2023/10/16 04:16:29;;;;;;;8.05;5.05;;;;;;;4.01;100.00;102251.25;5048403;28;20055;-73
2023/10/16 04:18:56;;;;;;;8.02;5.45;;;;;;;4.00;100.00;102249.44;5048242;28;20127;-73
2023/10/16 04:24:30;;;;;;;7.70;5.47;;;;;;;3.96;100.00;102244.16;5030125;28;20060;-73
2023/10/16 04:32:28;;;;;;;8.93;5.80;;;;;;;3.98;100.00;102240.53;5047028;28;20041;-73
2023/10/16 04:34:54;;;;;;;6.85;5.13;;;;;;;3.96;100.00;102234.28;5047972;28;20064;-73
2023/10/16 04:37:35;;;;;;;6.50;4.95;;;;;;;3.97;100.00;102236.06;5029682;28;20549;-73
2023/10/16 04:48:06;;;;;;;7.80;5.50;;;;;;;4.09;100.00;102232.19;5041361;28;20481;-73
2023/10/16 05:17:22;;;;;;;10.20;6.00;;;;;;;4.15;100.00;102213.22;5028610;28;20050;-73
2023/10/16 05:19:53;;;;;;;13.57;6.63;;;;;;;4.18;100.00;102210.44;5027089;28;20047;-73
2023/10/16 06:14:13;;;;;;;12.45;7.25;;;;;;;4.69;100.00;102212.75;5025697;28;20043;-73
2023/10/16 06:16:42;;;;;;;13.40;7.10;;;;;;;4.68;100.00;102212.81;5026485;28;20515;-73
2023/10/16 06:19:22;;;;;;;11.30;6.60;;;;;;;4.64;100.00;102214.69;5027172;28;20146;-73
2023/10/16 06:21:58;;;;;;;11.18;6.28;;;;;;;4.65;100.00;102220.97;5025400;28;20531;-73
2023/10/16 06:24:35;;;;;;;9.10;6.75;;;;;;;4.63;100.00;102221.00;5044659;28;20055;-73
2023/10/16 06:27:12;;;;;;;10.45;6.72;;;;;;;4.60;100.00;102213.88;5026937;28;20060;-73
2023/10/16 06:29:49;;;;;;;11.35;6.43;;;;;;;4.59;100.00;102217.50;5038777;28;20050;-72
2023/10/16 06:32:19;;;;;;;12.95;6.50;;;;;;;4.58;100.00;102218.44;5043415;28;20079;-72
2023/10/16 06:35:07;;;;;;;15.20;6.85;;;;;;;4.57;100.00;102219.38;5043765;28;20028;-73
2023/10/16 06:37:32;;;;;;;8.25;6.00;;;;;;;4.58;100.00;102229.22;5026134;28;20044;-72
2023/10/16 06:40:00;;;;;;;7.15;6.00;;;;;;;4.59;100.00;102220.19;5027475;28;20038;-73
2023/10/16 06:42:27;;;;;;;11.35;6.20;;;;;;;4.59;100.00;102217.50;5026596;28;20473;-73
2023/10/16 06:44:54;;;;;;;11.85;6.63;;;;;;;4.61;100.00;102215.63;5017114;28;20071;-72
2023/10/16 06:47:34;;;;;;;11.90;6.82;;;;;;;4.67;100.00;102224.53;5036709;28;20545;-73
2023/10/16 06:50:01;;;;;;;13.65;6.78;;;;;;;4.70;100.00;102228.00;5029442;28;20099;-73
2023/10/16 06:52:26;;;;;;;8.73;5.95;;;;;;;4.72;100.00;102226.16;5026341;28;20346;-73
2023/10/16 06:54:51;;;;;;;12.60;5.97;;;;;;;4.74;100.00;102224.31;5035515;28;20048;-73
2023/10/16 06:57:19;;;;;;;10.35;6.53;;;;;;;4.77;100.00;102226.94;5029452;28;20040;-73
2023/10/16 06:59:45;;;;;;;9.20;6.63;;;;;;;4.81;100.00;102214.25;5029359;28;20037;-73
2023/10/16 07:02:15;;;;;;;14.48;7.13;;;;;;;4.89;100.00;102217.63;5026549;28;20106;-72
2023/10/16 07:04:47;;;;;;;10.70;7.13;;;;;;;4.95;100.00;102220.16;5026812;28;20044;-72
2023/10/16 07:07:16;;;;;;;11.50;7.53;;;;;;;5.02;100.00;102226.25;5025760;28;20041;-73
2023/10/16 07:09:47;;;;;;;9.73;6.75;;;;;;;5.11;100.00;102215.22;5044702;28;20500;-73
2023/10/16 07:12:17;;;;;;;12.73;6.70;;;;;;;5.21;100.00;102219.44;5044388;28;20048;-73
2023/10/16 07:14:57;;;;;;;13.38;7.93;;;;;;;5.30;100.00;102219.16;5027998;28;20110;-72
2023/10/16 07:17:25;;;;;;;15.45;8.20;;;;;;;5.47;100.00;102223.22;5046576;28;20037;-72
2023/10/16 07:19:55;;;;;;;9.32;6.75;;;;;;;5.64;100.00;102220.88;5026620;28;20493;-72
2023/10/16 07:22:22;;;;;;;12.68;6.97;;;;;;;5.76;100.00;102222.34;5046521;28;20103;-72
2023/10/16 07:24:47;;;;;;;13.40;7.35;;;;;;;5.86;100.00;102227.41;5045495;28;20033;-72
2023/10/16 07:27:14;;;;;;;10.45;7.10;;;;;;;5.98;100.00;102228.91;5042078;28;20507;-72
2023/10/16 07:29:41;;;;;;;10.90;7.10;;;;;;;6.03;100.00;102231.44;5038316;28;20102;-72
2023/10/16 07:32:08;;;;;;;13.38;7.68;;;;;;;6.06;100.00;102229.56;5027205;28;20049;-73
2023/10/16 07:34:38;;;;;;;13.82;6.82;;;;;;;6.12;100.00;102229.34;5025791;28;20028;-73
2023/10/16 07:37:07;;;;;;;11.05;6.20;;;;;;;6.17;100.00;102228.31;5047527;28;20106;-72
2023/10/16 07:39:34;;;;;;;18.23;6.82;;;;;;;6.25;100.00;102218.13;5051225;28;20033;-73
2023/10/16 07:42:01;;;;;;;8.57;6.55;;;;;;;6.33;100.00;102224.16;5037013;28;20033;-73
2023/10/16 07:44:28;;;;;;;11.68;6.60;;;;;;;6.37;100.00;102217.72;5033844;28;20516;-72
2023/10/16 07:46:53;;;;;;;11.02;6.97;;;;;;;6.49;100.00;102222.75;5049956;28;20080;-72
2023/10/16 07:49:25;;;;;;;10.60;7.15;;;;;;;6.58;100.00;102217.03;5047781;28;20060;-72
2023/10/16 07:51:55;;;;;;;12.85;7.22;;;;;;;6.65;100.00;102218.56;5033660;28;20037;-72
2023/10/16 07:54:23;;;;;;;10.75;7.63;;;;;;;6.71;100.00;102214.78;5030222;28;20052;-72
2023/10/16 07:56:50;;;;;;;10.38;6.90;;;;;;;6.76;100.00;102211.91;5030011;28;20178;-72
2023/10/16 07:59:19;;;;;;;9.82;6.68;;;;;;;6.82;100.00;102209.88;5032665;28;20107;-72
2023/10/16 08:01:57;;;;;;;9.57;6.57;;;;;;;6.89;100.00;102216.84;5049807;28;20040;-72
2023/10/16 08:06:51;;;;;;;13.20;7.45;;;;;;;7.14;100.00;102219.56;5033783;28;20038;-72
2023/10/16 08:09:48;;;;;;;11.23;6.78;;;;;;;7.25;100.00;102211.06;5029743;28;20049;-72
2023/10/16 08:12:20;;;;;;;11.85;7.72;;;;;;;7.39;100.00;102205.13;5030160;28;20072;-72
2023/10/16 08:14:47;;;;;;;10.60;7.70;;;;;;;7.54;100.00;102211.78;5019471;28;20098;-72
2023/10/16 08:17:17;;;;;;;12.00;7.45;;;;;;;7.63;100.00;102214.16;5048247;28;20025;-72
2023/10/16 08:19:43;;;;;;;11.05;7.50;;;;;;;7.76;100.00;102211.88;5048159;28;20072;-72
2023/10/16 08:22:09;;;;;;;14.05;7.65;;;;;;;7.92;100.00;102213.00;5030680;28;20507;-72
2023/10/16 08:24:38;;;;;;;11.65;7.35;;;;;;;8.04;100.00;102215.25;5029888;28;20033;-72
2023/10/16 08:28:19;;;;;;;14.90;8.32;;;;;;;8.14;100.00;102213.94;5025428;28;20028;-72
2023/10/16 08:30:17;;;;;;;15.27;7.70;;;;;;;8.31;100.00;102213.25;5038266;28;20404;-72
2023/10/16 08:35:19;;;;;;;13.68;6.68;;;;;;;8.59;100.00;102217.56;5030968;28;20123;-72
2023/10/16 08:37:56;;;;;;;15.73;6.70;;;;;;;8.69;100.00;102221.66;5047999;28;20044;-72
2023/10/16 08:40:32;;;;;;;12.88;7.65;;;;;;;8.82;100.00;102219.31;5046596;28;20119;-72
2023/10/16 08:43:09;;;;;;;9.52;6.88;;;;;;;8.93;100.00;102219.72;5049163;28;20558;-72
2023/10/16 08:45:39;;;;;;;11.15;5.97;;;;;;;9.05;100.00;102219.19;5033954;28;20037;-72
2023/10/16 08:48:07;;;;;;;14.57;6.82;;;;;;;9.20;100.00;102217.63;5036873;28;20512;-72
2023/10/16 08:50:42;;;;;;;13.60;7.50;;;;;;;9.31;100.00;102212.56;5043665;28;20336;-73
2023/10/16 08:53:30;;;;;;;8.77;6.88;;;;;;;9.44;100.00;102207.47;5027732;28;20191;-73
2023/10/16 08:56:03;;;;;;;11.25;7.03;;;;;;;9.53;100.00;102207.06;5028438;28;20040;-73
2023/10/16 08:58:33;;;;;;;11.75;6.57;;;;;;;9.63;100.00;102216.53;5027671;28;20503;-73
2023/10/16 09:00:59;;;;;;;9.93;6.65;;;;;;;9.78;100.00;102206.78;5028204;28;20505;-73
2023/10/16 09:03:26;;;;;;;11.07;5.85;;;;;;;9.93;100.00;102211.50;5028739;28;20140;-73
2023/10/16 09:05:51;;;;;;;9.82;5.78;;;;;;;10.03;100.00;102213.78;5028494;28;20036;-73
2023/10/16 09:08:16;;;;;;;11.65;5.63;;;;;;;10.13;100.00;102213.25;5034718;28;20041;-73
2023/10/16 09:10:44;;;;;;;12.55;5.72;;;;;;;10.30;100.00;102217.00;5029953;28;20040;-72
2023/10/16 09:13:17;;;;;;;8.10;5.43;;;;;;;10.51;100.00;102218.66;5048425;28;20071;-73
2023/10/16 09:15:45;;;;;;;8.88;5.32;;;;;;;10.61;98.12;102219.06;5031461;28;20113;-73
2023/10/16 09:18:21;;;;;;;6.60;4.38;;;;;;;10.69;97.19;102217.75;5028678;28;20520;-73
2023/10/16 09:20:49;;;;;;;9.05;4.95;;;;;;;10.80;95.66;102221.75;5027650;28;20086;-73
2023/10/16 09:23:15;;;;;;;6.05;5.18;;;;;;;10.88;94.41;102223.13;5027191;28;20493;-73
2023/10/16 09:25:45;;;;;;;8.45;4.97;;;;;;;10.99;95.38;102217.09;5027481;28;20088;-73
2023/10/16 09:28:16;;;;;;;8.82;4.85;;;;;;;11.12;95.55;102212.78;5043056;28;20049;-73
2023/10/16 09:30:45;;;;;;;7.55;5.05;;;;;;;11.31;96.43;102220.84;5027081;28;20056;-73
2023/10/16 09:33:10;;;;;;;5.55;4.97;;;;;;;11.41;92.76;102219.38;5026033;28;20131;-73
2023/10/16 09:35:43;;;;;;;9.25;5.45;;;;;;;11.50;92.98;102216.16;5028527;28;20456;-73
2023/10/16 09:38:15;;;;;;;;;;;;;;;11.63;96.77;102210.94;5026379;28;20521;-73
2023/10/16 09:40:44;;;;;;;6.35;3.70;;;;;;;11.78;89.94;102216.50;5025324;28;20368;-74
2023/10/16 09:43:24;;;;;;;5.80;3.55;;;;;;;11.94;91.17;102220.19;5025680;28;20504;-74
2023/10/16 09:45:49;;;;;;;5.95;3.92;;;;;;;12.01;88.89;102221.56;5026316;28;20088;-74
2023/10/16 09:48:19;;;;;;;7.00;3.78;;;;;;;12.12;86.26;102227.28;5028052;28;20091;-74
2023/10/16 09:50:45;;;;;;;4.55;3.60;;;;;;;12.27;91.34;102213.78;5026919;28;20543;-74
2023/10/16 09:53:11;;;;;;;9.75;4.57;;;;;;;12.25;84.97;102217.44;5033559;28;20037;-74
2023/10/16 09:55:44;;;;;;;6.43;4.00;;;;;;;12.21;83.20;102220.44;5027758;28;20116;-74
2023/10/16 09:58:11;;;;;;;7.95;3.78;;;;;;;12.31;86.00;102216.25;5026265;28;20044;-74
2023/10/16 10:00:44;;;;;;;5.10;3.10;;;;;;;12.40;86.05;102212.97;5027578;28;20351;-74
2023/10/16 10:03:14;;;;;;;6.88;3.30;;;;;;;12.50;84.41;102218.78;5027903;28;20064;-74
2023/10/16 10:05:55;;;;;;;4.45;3.53;;;;;;;12.64;87.87;102213.38;5026581;28;20040;-74
2023/10/16 10:11:38;;;;;;;5.75;3.30;;;;;;;12.94;82.79;102216.13;5025924;28;20143;-74
2023/10/16 10:16:56;;;;;;;4.35;2.88;;;;;;;13.06;80.98;102214.50;5027193;28;20034;-74
2023/10/16 10:19:35;;;;;;;3.92;2.83;;;;;;;13.14;82.04;102214.00;5009752;28;20047;-74
2023/10/16 10:22:26;;;;;;;4.97;2.60;;;;;;;13.25;84.75;102209.69;5027533;28;20122;-74
2023/10/16 10:25:13;;;;;;;4.72;2.50;;;;;;;13.32;84.55;102210.19;5025815;28;20047;-74
2023/10/16 10:27:41;;;;;;;4.50;2.35;;;;;;;13.33;80.76;102206.47;5026611;28;20053;-74
2023/10/16 10:30:19;;;;;;;2.13;1.77;;;;;;;13.31;75.15;102213.03;5027042;28;20144;-74
2023/10/16 10:32:57;;;;;;;2.97;1.85;;;;;;;13.30;78.39;102208.53;5043799;28;20450;-74
2023/10/16 10:35:38;;;;;;;3.92;1.90;;;;;;;13.36;78.10;102210.88;5042970;28;20116;-74
2023/10/16 10:38:30;;;;;;;4.00;1.90;;;;;;;13.31;77.66;102205.69;5027760;28;20033;-74
2023/10/16 10:41:10;;;;;;;5.30;1.85;;;;;;;13.16;76.09;102209.34;5023306;28;20099;-74
2023/10/16 10:43:48;;;;;;;3.20;1.80;;;;;;;13.19;77.04;102203.69;5047457;28;20084;-74
2023/10/16 10:46:25;;;;;;;5.82;2.97;;;;;;;13.30;78.03;102203.06;5027080;28;20048;-74
2023/10/16 10:48:54;;;;;;;2.35;1.52;;;;;;;13.41;76.59;102200.53;5026623;28;20101;-75
2023/10/16 10:51:20;;;;;;;6.05;1.50;;;;;;;13.56;77.87;102193.22;5027193;28;20041;-74
2023/10/16 10:53:56;;;;;;;3.25;1.83;;;;;;;13.68;76.00;102196.06;5027373;28;20037;-74
2023/10/16 10:56:21;;;;;;;2.10;1.60;;;;;;;13.81;79.19;102187.94;5024836;28;20040;-74
2023/10/16 10:58:48;;;;;;;6.97;2.25;;;;;;;13.98;77.90;102187.69;5027436;28;20042;-74
2023/10/16 11:01:18;;;;;;;3.83;2.00;;;;;;;14.07;77.41;102183.50;5025852;28;20041;-74
2023/10/16 11:03:47;;;;;;;5.40;1.70;;;;;;;14.12;74.93;102185.94;5025971;28;20065;-74
2023/10/16 11:06:19;;;;;;;5.03;2.25;;;;;;;14.10;73.36;102188.78;5026756;28;20040;-74
2023/10/16 11:08:50;;;;;;;3.95;2.03;;;;;;;14.17;75.58;102187.38;5026764;28;20346;-74
2023/10/16 11:11:16;;;;;;;5.40;2.40;;;;;;;14.33;75.83;102181.78;5030514;28;20044;-74
2023/10/16 11:13:48;;;;;;;2.95;1.85;;;;;;;14.40;74.49;102179.50;5030140;28;20053;-74
2023/10/16 11:16:17;;;;;;;3.30;1.73;;;;;;;14.57;75.89;102179.28;5019734;28;20037;-74
2023/10/16 11:19:00;;;;;;;4.82;1.42;;;;;;;14.72;73.56;102178.22;5030047;28;20587;-74
2023/10/16 11:21:27;;;;;;;4.68;1.88;;;;;;;14.54;67.61;102171.25;5030487;28;20132;-74
2023/10/16 11:24:00;;;;;;;3.47;1.35;;;;;;;14.18;65.84;102174.59;5028786;28;20021;-74
2023/10/16 11:26:29;;;;;;;2.58;1.23;;;;;;;13.85;66.48;102169.44;5029627;28;20405;-74
2023/10/16 11:28:55;;;;;;;1.70;1.10;;;;;;;13.61;67.22;102175.53;5030160;28;20029;-74
2023/10/16 11:31:21;;;;;;;2.15;0.98;;;;;;;13.46;67.67;102165.56;5050004;28;20102;-73
2023/10/16 11:34:00;;;;;;;5.75;1.60;;;;;;;13.47;72.34;102164.59;5047235;28;20219;-74
2023/10/16 11:36:27;;;;;;;2.80;1.10;;;;;;;13.43;70.06;102152.09;5039170;28;20041;-74
2023/10/16 11:38:58;;;;;;;6.30;1.63;;;;;;;13.43;72.69;102161.19;5030269;28;20029;-74
2023/10/16 11:41:24;;;;;;;2.72;1.20;;;;;;;13.55;72.24;102158.66;5028465;28;20481;-74
2023/10/16 11:43:54;;;;;;;4.50;1.60;;;;;;;13.62;75.23;102155.44;5041497;28;20036;-74
2023/10/16 11:46:30;;;;;;;3.13;1.35;;;;;;;13.64;74.44;102147.13;5031782;28;20048;-74
2023/10/16 11:49:17;;;;;;;5.75;1.50;;;;;;;13.63;71.55;102148.09;5049894;28;20044;-74
2023/10/16 11:51:49;;;;;;;4.15;1.50;;;;;;;13.66;71.65;102147.88;5035755;28;20037;-74
2023/10/16 11:54:19;;;;;;;6.05;1.67;;;;;;;13.72;76.37;102145.66;5030093;28;20037;-74
2023/10/16 11:56:50;;;;;;;1.92;1.45;;;;;;;13.78;74.97;102138.91;5028461;28;20091;-74
2023/10/16 11:59:19;;;;;;;3.35;1.35;;;;;;;13.77;71.99;102139.88;5044697;28;20124;-74
2023/10/16 12:01:44;;;;;;;2.60;1.80;;;;;;;13.88;75.90;102133.69;5029590;28;20385;-74
2023/10/16 12:04:11;;;;;;;6.72;1.45;;;;;;;13.97;75.43;102133.97;5028224;28;20045;-74
2023/10/16 12:06:38;;;;;;;4.00;1.50;;;;;;;14.01;74.26;102126.44;5042331;28;20087;-74
2023/10/16 12:09:05;;;;;;;6.75;1.58;;;;;;;14.03;71.52;102125.38;5044423;28;20496;-74
2023/10/16 12:11:30;;;;;;;2.35;1.40;;;;;;;14.07;72.63;102119.69;5029591;28;20029;-74
2023/10/16 12:13:55;;;;;;;3.88;1.27;;;;;;;14.08;70.09;102119.56;5011541;28;20064;-73
2023/10/16 12:16:24;;;;;;;5.35;1.67;;;;;;;14.06;70.76;102116.06;5029258;28;20034;-73
2023/10/16 12:18:51;;;;;;;2.13;1.20;;;;;;;14.08;73.13;102116.81;5033098;28;20837;-74
2023/10/16 12:21:17;;;;;;;4.07;1.48;;;;;;;13.98;67.53;102116.56;5038442;28;20087;-73
2023/10/16 12:23:43;;;;;;;3.83;1.25;;;;;;;13.83;68.08;102116.72;5047580;28;20395;-74
2023/10/16 12:26:09;;;;;;;1.25;1.10;;;;;;;13.79;69.62;102111.44;5029153;28;20048;-74
2023/10/16 12:28:34;;;;;;;4.68;1.40;;;;;;;13.85;70.88;102112.00;5040420;28;20017;-74
2023/10/16 12:31:02;;;;;;;3.92;1.60;;;;;;;13.93;71.14;102116.00;5031750;28;20048;-74
2023/10/16 12:33:28;;;;;;;3.50;1.85;;;;;;;14.07;70.15;102100.53;5033147;28;20443;-74
2023/10/16 12:35:57;;;;;;;5.35;1.70;;;;;;;14.18;70.03;102108.91;5040842;28;20032;-74
2023/10/16 12:38:26;;;;;;;2.42;1.40;;;;;;;14.22;70.83;102103.13;5029508;28;20116;-74
2023/10/16 12:40:55;;;;;;;4.30;1.75;;;;;;;14.30;72.21;102092.50;5016499;28;20119;-74
2023/10/16 12:43:25;;;;;;;5.88;1.67;;;;;;;14.46;69.85;102102.44;5064042;28;20029;-74
2023/10/16 12:45:51;;;;;;;5.82;1.60;;;;;;;14.54;69.25;102094.56;5032638;28;20034;-74
2023/10/16 12:48:17;;;;;;;3.25;1.50;;;;;;;14.58;69.20;102085.16;5029616;28;20095;-74
2023/10/16 12:50:47;;;;;;;2.47;1.70;;;;;;;14.67;71.54;102089.13;5019096;28;20025;-75
2023/10/16 12:53:13;;;;;;;2.22;1.35;;;;;;;14.70;68.69;102089.78;5029537;28;20048;-74
2023/10/16 12:55:40;;;;;;;1.73;1.38;;;;;;;14.67;70.00;102086.38;5011154;28;20711;-75
2023/10/16 12:58:10;;;;;;;3.20;1.80;;;;;;;14.67;67.16;102091.88;5029603;28;20513;-74
2023/10/16 13:00:39;;;;;;;4.13;2.13;;;;;;;14.67;67.44;102084.53;5042142;28;20444;-74
2023/10/16 13:03:13;;;;;;;2.28;1.65;;;;;;;14.71;69.42;102087.94;5043024;28;20075;-74
2023/10/16 13:05:40;;;;;;;5.55;1.80;;;;;;;14.75;68.54;102089.47;5028431;28;20258;-74
2023/10/16 13:08:07;;;;;;;5.68;2.00;;;;;;;14.76;66.65;102088.47;5029542;28;20052;-74
2023/10/16 13:10:33;;;;;;;5.32;2.08;;;;;;;14.87;68.39;102090.47;5029038;28;20623;-74
2023/10/16 13:13:00;;;;;;;2.70;1.50;;;;;;;14.88;67.47;102084.88;5028595;28;20032;-74
2023/10/16 13:15:25;;;;;;;4.13;1.73;;;;;;;14.92;67.17;102082.78;5031788;28;20044;-74
2023/10/16 13:17:52;;;;;;;3.30;1.77;;;;;;;14.90;62.98;102077.41;5028912;28;20389;-74
2023/10/16 13:20:17;;;;;;;4.32;1.95;;;;;;;14.92;69.33;102080.94;5029133;28;20351;-74
2023/10/16 13:22:49;;;;;;;4.65;1.75;;;;;;;15.01;68.89;102079.38;5047106;28;20033;-74
2023/10/16 13:25:19;;;;;;;3.92;2.13;;;;;;;15.14;69.14;102074.78;5044734;28;20058;-75
2023/10/16 13:27:45;;;;;;;4.57;2.08;;;;;;;15.17;66.61;102079.19;5027038;28;20035;-74